Time;durP1;ratioP1;P1;durP2;ratioP2;P2;SDS_P1;SDS_P2;PMS_P1;PMS_P2;Temp;Humidity;BMP_temperature;BMP_pressure;BME280_temperature;BME280_humidity;BME280_pressure;Samples;Min_cycle;Max_cycle;Signal;HPM_P1;HPM_P2
2022/10/28 00:00:53;;;;;;;16.63;12.32;;;11.90;99.90;;;;;;5016909;28;20516;-59
2022/10/28 00:03:19;;;;;;;18.38;12.15;;;11.90;99.90;;;;;;5015844;28;20041;-59
2022/10/28 00:05:45;;;;;;;14.15;12.52;;;11.80;99.90;;;;;;5016384;28;20041;-59
2022/10/28 00:08:11;;;;;;;18.55;12.25;;;11.80;99.90;;;;;;5017154;28;20052;-59
2022/10/28 00:10:36;;;;;;;22.08;14.23;;;11.80;99.90;;;;;;5017856;28;20132;-60
2022/10/28 00:13:02;;;;;;;20.70;15.57;;;11.80;99.90;;;;;;5021143;28;20109;-59
2022/10/28 00:15:28;;;;;;;23.02;14.82;;;11.80;99.90;;;;;;5019334;28;20450;-59
2022/10/28 00:17:53;;;;;;;19.13;15.70;;;11.90;99.90;;;;;;5022254;28;20076;-59
2022/10/28 00:20:19;;;;;;;16.90;14.15;;;11.90;99.90;;;;;;5021102;28;20126;-60
2022/10/28 00:22:45;;;;;;;16.95;15.35;;;12.00;99.90;;;;;;5021333;28;20065;-59
2022/10/28 00:25:10;;;;;;;29.30;16.33;;;12.00;99.90;;;;;;5022148;28;20026;-59
2022/10/28 00:27:36;;;;;;;22.70;17.27;;;12.00;99.90;;;;;;5022173;28;20056;-58
2022/10/28 00:30:03;;;;;;;21.45;15.82;;;12.10;99.90;;;;;;5021790;28;20034;-60
2022/10/28 00:32:29;;;;;;;21.70;16.00;;;12.20;99.90;;;;;;5020927;28;20021;-59
2022/10/28 00:34:55;;;;;;;18.63;16.02;;;12.20;99.90;;;;;;5020925;28;20371;-59
2022/10/28 00:37:21;;;;;;;21.20;15.95;;;12.30;99.90;;;;;;5019754;28;20076;-60
2022/10/28 00:39:47;;;;;;;15.48;13.73;;;12.40;99.90;;;;;;5020653;28;20025;-59
2022/10/28 00:42:17;;;;;;;17.52;14.25;;;12.40;99.90;;;;;;5020290;28;20113;-59
2022/10/28 00:44:46;;;;;;;15.93;12.70;;;12.40;99.90;;;;;;5018253;28;20056;-59
2022/10/28 00:47:17;;;;;;;16.50;12.77;;;12.40;99.90;;;;;;5023756;28;20022;-60
2022/10/28 00:49:46;;;;;;;16.65;12.02;;;12.40;99.90;;;;;;5025138;28;20044;-59
2022/10/28 00:52:23;;;;;;;15.18;11.07;;;12.40;99.90;;;;;;5021442;28;20429;-59
2022/10/28 00:54:50;;;;;;;11.20;10.20;;;12.30;99.90;;;;;;5021253;28;20100;-58
2022/10/28 00:57:19;;;;;;;13.88;10.85;;;12.30;99.90;;;;;;5018952;28;20410;-58
2022/10/28 00:59:49;;;;;;;11.85;10.85;;;12.30;99.90;;;;;;5018467;28;20508;-59
2022/10/28 01:02:15;;;;;;;19.90;10.45;;;12.30;99.90;;;;;;5023960;28;20410;-59
2022/10/28 01:04:42;;;;;;;11.65;10.50;;;12.30;99.90;;;;;;5017043;28;20117;-59
2022/10/28 01:07:09;;;;;;;17.08;11.88;;;12.30;99.90;;;;;;5020113;28;20040;-59
2022/10/28 01:09:35;;;;;;;12.30;11.10;;;12.30;99.90;;;;;;5020435;28;20030;-59
2022/10/28 01:12:29;;;;;;;19.90;12.52;;;12.30;99.90;;;;;;5021629;28;20124;-60
2022/10/28 01:15:00;;;;;;;14.95;11.65;;;12.30;99.90;;;;;;5019910;28;20025;-57
2022/10/28 01:17:46;;;;;;;21.60;11.68;;;12.30;99.90;;;;;;5015711;28;20018;-58
2022/10/28 01:20:39;;;;;;;17.70;12.23;;;12.20;99.90;;;;;;5022161;28;20022;-59
2022/10/28 01:23:37;;;;;;;23.95;15.02;;;12.10;99.90;;;;;;5015862;28;20099;-59
2022/10/28 01:26:32;;;;;;;19.05;14.68;;;12.10;99.90;;;;;;5018093;28;20037;-59
2022/10/28 01:29:16;;;;;;;17.20;13.68;;;12.00;99.90;;;;;;5013278;28;20057;-58
2022/10/28 01:32:03;;;;;;;16.20;13.70;;;12.00;99.90;;;;;;5020507;28;20099;-60
2022/10/28 01:34:55;;;;;;;18.55;14.10;;;11.90;99.90;;;;;;5019376;28;20034;-59
2022/10/28 01:37:47;;;;;;;25.05;14.07;;;11.80;99.90;;;;;;5002313;28;20029;-59
2022/10/28 01:40:28;;;;;;;21.05;14.75;;;11.80;99.90;;;;;;5019867;28;20104;-60
2022/10/28 01:43:05;;;;;;;19.63;15.80;;;11.80;99.90;;;;;;5019395;28;20026;-60
2022/10/28 01:45:37;;;;;;;21.40;15.25;;;11.80;99.90;;;;;;5019060;28;20065;-60
2022/10/28 01:48:11;;;;;;;21.50;16.40;;;11.80;99.90;;;;;;5020790;28;20080;-59
2022/10/28 01:50:56;;;;;;;22.58;15.10;;;11.90;99.90;;;;;;5021628;28;20032;-60
2022/10/28 01:53:30;;;;;;;18.52;15.88;;;11.80;99.90;;;;;;5021359;28;20033;-60
2022/10/28 01:56:00;;;;;;;21.98;16.38;;;11.80;99.90;;;;;;5013097;28;20030;-57
2022/10/28 01:58:29;;;;;;;20.85;16.25;;;11.80;99.90;;;;;;5020110;28;20508;-59
2022/10/28 02:00:57;;;;;;;18.48;16.20;;;11.80;99.90;;;;;;5019277;28;20033;-59
2022/10/28 02:03:22;;;;;;;24.35;17.02;;;11.80;99.90;;;;;;5017532;28;20493;-59
2022/10/28 02:05:52;;;;;;;20.80;18.45;;;11.80;99.90;;;;;;5020137;28;20041;-59
2022/10/28 02:08:18;;;;;;;26.35;18.90;;;11.80;99.90;;;;;;5020954;28;20605;-59
2022/10/28 02:10:52;;;;;;;28.15;19.40;;;11.90;99.90;;;;;;5018007;28;20054;-59
2022/10/28 02:13:19;;;;;;;23.77;17.50;;;11.90;99.90;;;;;;5019820;28;20026;-59
2022/10/28 02:16:01;;;;;;;25.70;18.10;;;11.90;99.90;;;;;;5020343;28;20029;-59
2022/10/28 02:18:51;;;;;;;18.48;16.58;;;11.90;99.90;;;;;;5020228;28;20610;-59
2022/10/28 02:21:39;;;;;;;24.88;17.67;;;11.90;99.90;;;;;;5021033;28;20017;-60
2022/10/28 02:24:22;;;;;;;26.10;17.80;;;11.80;99.90;;;;;;5017570;28;20030;-58
2022/10/28 02:27:00;;;;;;;18.63;16.70;;;11.80;99.90;;;;;;5020749;28;20030;-59
2022/10/28 02:29:34;;;;;;;20.80;16.45;;;11.80;99.90;;;;;;5017375;28;20022;-59
2022/10/28 02:32:16;;;;;;;23.42;16.40;;;11.80;99.90;;;;;;5017907;28;20560;-59
2022/10/28 02:34:46;;;;;;;26.02;16.08;;;11.80;99.90;;;;;;5018209;28;20036;-59
2022/10/28 02:37:21;;;;;;;21.60;16.80;;;11.80;99.90;;;;;;5019353;28;20041;-60
2022/10/28 02:39:52;;;;;;;24.25;15.32;;;11.90;99.90;;;;;;5015790;28;20112;-59
2022/10/28 02:42:23;;;;;;;19.75;16.42;;;11.90;99.90;;;;;;5018155;28;20033;-58
2022/10/28 02:44:52;;;;;;;25.48;16.08;;;11.90;99.90;;;;;;5018056;28;20171;-59
2022/10/28 02:47:24;;;;;;;23.17;16.02;;;11.80;99.90;;;;;;5020331;28;20026;-58
2022/10/28 02:49:55;;;;;;;25.35;18.00;;;11.80;99.90;;;;;;5018073;28;20044;-58
2022/10/28 02:52:23;;;;;;;29.77;18.20;;;11.90;99.90;;;;;;5018147;28;20033;-60
2022/10/28 02:54:55;;;;;;;23.48;18.55;;;11.90;99.90;;;;;;5016535;28;20037;-59
2022/10/28 02:57:24;;;;;;;26.27;17.55;;;11.90;99.90;;;;;;5016061;28;20036;-58
2022/10/28 02:59:58;;;;;;;28.70;18.00;;;11.90;99.90;;;;;;5013691;28;20036;-59
2022/10/28 03:02:24;;;;;;;22.00;17.20;;;11.90;99.90;;;;;;5018149;28;20101;-59
2022/10/28 03:04:50;;;;;;;19.30;15.70;;;11.80;99.90;;;;;;5012767;28;20037;-59
2022/10/28 03:07:16;;;;;;;23.30;16.17;;;11.70;99.90;;;;;;5016888;28;20029;-59
2022/10/28 03:09:41;;;;;;;20.65;15.68;;;11.70;99.90;;;;;;5018350;28;20040;-59
2022/10/28 03:12:07;;;;;;;33.08;16.58;;;11.70;99.90;;;;;;5018403;28;20040;-59
2022/10/28 03:14:33;;;;;;;17.63;15.93;;;11.60;99.90;;;;;;5017639;28;20022;-59
2022/10/28 03:16:58;;;;;;;19.90;17.05;;;11.60;99.90;;;;;;5017350;28;20033;-59
2022/10/28 03:19:24;;;;;;;27.48;17.13;;;11.60;99.90;;;;;;5017578;28;20026;-59
2022/10/28 03:21:49;;;;;;;20.17;17.02;;;11.60;99.90;;;;;;5012525;28;20025;-59
2022/10/28 03:24:15;;;;;;;25.83;18.33;;;11.60;99.90;;;;;;5017112;28;20469;-59
2022/10/28 03:26:41;;;;;;;27.02;19.55;;;11.60;99.90;;;;;;5017272;28;20543;-59
2022/10/28 03:29:06;;;;;;;32.65;20.83;;;11.70;99.90;;;;;;5019720;28;20025;-60
2022/10/28 03:31:32;;;;;;;28.90;20.90;;;11.70;99.90;;;;;;5017301;28;20120;-61
2022/10/28 03:33:57;;;;;;;34.20;22.40;;;11.80;99.90;;;;;;5013798;28;20091;-59
2022/10/28 03:36:23;;;;;;;38.22;21.92;;;11.80;99.90;;;;;;5017139;28;20175;-59
2022/10/28 03:38:48;;;;;;;30.92;21.13;;;11.90;99.90;;;;;;5023524;28;20040;-59
2022/10/28 03:41:14;;;;;;;27.02;19.67;;;11.90;99.90;;;;;;5016314;28;20022;-59
2022/10/28 03:43:40;;;;;;;28.35;20.05;;;11.90;99.90;;;;;;5018800;28;20039;-59
2022/10/28 03:46:05;;;;;;;31.98;20.40;;;11.90;99.90;;;;;;5021820;28;20149;-58
2022/10/28 03:48:31;;;;;;;35.88;19.67;;;11.90;99.90;;;;;;5021402;28;20084;-59
2022/10/28 03:50:57;;;;;;;30.45;20.80;;;11.90;99.90;;;;;;5021648;28;20109;-58
2022/10/28 03:53:22;;;;;;;26.23;18.80;;;11.90;99.90;;;;;;5021502;28;20847;-59
2022/10/28 03:55:55;;;;;;;21.17;18.63;;;11.80;99.90;;;;;;5020274;28;20096;-59
2022/10/28 03:58:22;;;;;;;20.67;16.98;;;11.80;99.90;;;;;;5022118;28;20026;-58
2022/10/28 04:00:49;;;;;;;23.48;16.88;;;11.80;99.90;;;;;;5021294;28;20029;-59
2022/10/28 04:03:16;;;;;;;19.83;16.45;;;11.70;99.90;;;;;;5023396;28;20491;-60
2022/10/28 04:05:42;;;;;;;18.83;16.52;;;11.70;99.90;;;;;;5019621;28;20541;-59
2022/10/28 04:08:07;;;;;;;20.05;16.17;;;11.60;99.90;;;;;;5022155;28;20013;-58
2022/10/28 04:10:33;;;;;;;25.95;15.73;;;11.50;99.90;;;;;;5019689;28;20032;-59
2022/10/28 04:13:00;;;;;;;22.50;17.42;;;11.50;99.90;;;;;;5022543;28;20030;-59
2022/10/28 04:15:26;;;;;;;23.55;17.80;;;11.50;99.90;;;;;;5001017;28;20026;-59
2022/10/28 04:17:51;;;;;;;24.70;18.00;;;11.50;99.90;;;;;;5023069;28;20100;-59
2022/10/28 04:20:17;;;;;;;19.70;17.67;;;11.50;99.90;;;;;;5021924;28;20026;-59
2022/10/28 04:22:43;;;;;;;32.08;18.77;;;11.50;99.90;;;;;;5017721;28;20064;-58
2022/10/28 04:25:09;;;;;;;32.63;17.17;;;11.50;99.90;;;;;;5018364;28;20042;-59
2022/10/28 04:27:34;;;;;;;21.08;17.65;;;11.40;99.90;;;;;;5017226;28;20022;-60
2022/10/28 04:30:00;;;;;;;23.25;17.42;;;11.40;99.90;;;;;;5022273;28;20453;-58
2022/10/28 04:32:25;;;;;;;21.85;18.00;;;11.40;99.90;;;;;;5024005;28;20025;-59
2022/10/28 04:34:51;;;;;;;29.73;19.20;;;11.40;99.90;;;;;;5016693;28;20058;-59
2022/10/28 04:37:17;;;;;;;27.73;19.42;;;11.30;99.90;;;;;;5021962;28;20494;-59
2022/10/28 04:39:42;;;;;;;26.25;17.90;;;11.30;99.90;;;;;;5022022;28;20072;-59
2022/10/28 04:42:08;;;;;;;26.02;16.95;;;11.30;99.90;;;;;;5025305;28;20030;-58
2022/10/28 04:44:34;;;;;;;22.42;17.70;;;11.30;99.90;;;;;;5021641;28;20093;-59
2022/10/28 04:46:59;;;;;;;30.05;18.13;;;11.30;99.90;;;;;;5021570;28;20034;-59
2022/10/28 04:49:25;;;;;;;22.05;17.17;;;11.20;99.90;;;;;;5021499;28;20057;-59
2022/10/28 04:51:50;;;;;;;22.00;16.67;;;11.20;99.90;;;;;;5022096;28;20539;-58
2022/10/28 04:54:16;;;;;;;18.85;16.85;;;11.20;99.90;;;;;;5023163;28;20088;-59
2022/10/28 04:56:42;;;;;;;20.80;17.80;;;11.20;99.90;;;;;;5024134;28;20025;-59
2022/10/28 04:59:07;;;;;;;24.33;19.50;;;11.20;99.90;;;;;;5021029;28;20080;-60
2022/10/28 05:01:33;;;;;;;24.05;17.45;;;11.20;99.90;;;;;;5019898;28;20061;-59
2022/10/28 05:03:58;;;;;;;27.45;17.88;;;11.20;99.90;;;;;;5021375;28;20091;-59
2022/10/28 05:06:24;;;;;;;23.80;17.05;;;11.20;99.90;;;;;;5021434;28;20037;-60
2022/10/28 05:08:49;;;;;;;23.30;18.10;;;11.30;99.90;;;;;;5022530;28;20045;-59
2022/10/28 05:11:15;;;;;;;33.85;17.73;;;11.30;99.90;;;;;;5019675;28;20072;-59
2022/10/28 05:13:41;;;;;;;25.40;17.35;;;11.30;99.90;;;;;;5019199;28;20099;-60
2022/10/28 05:16:07;;;;;;;22.15;16.88;;;11.40;99.90;;;;;;5019295;28;20032;-60
2022/10/28 05:18:32;;;;;;;23.40;17.80;;;11.40;99.90;;;;;;5026487;28;20397;-59
2022/10/28 05:20:58;;;;;;;28.00;18.10;;;11.50;99.90;;;;;;5020191;28;20037;-58
2022/10/28 05:23:24;;;;;;;28.02;17.58;;;11.50;99.90;;;;;;5020918;28;20029;-59
2022/10/28 05:25:50;;;;;;;24.55;18.90;;;11.60;99.90;;;;;;5020520;28;20037;-60
2022/10/28 05:28:16;;;;;;;28.35;18.52;;;11.60;99.90;;;;;;5019196;28;20034;-60
2022/10/28 05:30:43;;;;;;;28.77;17.67;;;11.60;99.90;;;;;;5026569;28;20078;-59
2022/10/28 05:33:10;;;;;;;29.35;18.90;;;11.70;99.90;;;;;;5022511;28;20061;-59
2022/10/28 05:35:36;;;;;;;26.48;15.18;;;11.70;99.90;;;;;;5020093;28;20699;-61
2022/10/28 05:38:03;;;;;;;27.08;18.05;;;11.70;99.90;;;;;;5023079;28;20057;-59
2022/10/28 05:40:31;;;;;;;21.00;16.42;;;11.70;99.90;;;;;;5020723;28;20113;-60
2022/10/28 05:42:57;;;;;;;21.65;16.60;;;11.70;99.90;;;;;;5017157;28;20056;-59
2022/10/28 05:45:22;;;;;;;16.33;14.70;;;11.80;99.90;;;;;;5019127;28;20383;-59
2022/10/28 05:47:48;;;;;;;21.83;14.50;;;11.70;99.90;;;;;;5015499;28;20026;-59
2022/10/28 05:50:16;;;;;;;24.08;13.52;;;11.70;99.90;;;;;;5020472;28;20509;-60
2022/10/28 05:52:52;;;;;;;17.35;12.93;;;11.70;99.90;;;;;;5019623;28;20490;-60
2022/10/28 05:55:20;;;;;;;17.17;12.13;;;11.70;99.90;;;;;;5018061;28;20634;-59
2022/10/28 05:57:50;;;;;;;15.77;13.68;;;11.70;99.90;;;;;;5023329;28;20030;-60
2022/10/28 06:00:18;;;;;;;25.25;12.77;;;11.70;99.90;;;;;;5017081;28;20638;-60
2022/10/28 06:02:44;;;;;;;22.02;13.43;;;11.70;99.90;;;;;;5019324;28;20618;-59
2022/10/28 06:05:10;;;;;;;22.15;13.60;;;11.70;99.90;;;;;;5019835;28;20108;-59
2022/10/28 06:07:37;;;;;;;14.07;12.55;;;11.70;99.90;;;;;;5018260;28;20108;-60
2022/10/28 06:10:04;;;;;;;15.07;12.13;;;11.60;99.90;;;;;;5017242;28;20065;-60
2022/10/28 06:12:30;;;;;;;13.82;12.43;;;11.60;99.90;;;;;;5019392;28;20037;-61
2022/10/28 06:14:56;;;;;;;15.80;14.27;;;11.60;99.90;;;;;;5016754;28;20032;-60
2022/10/28 06:17:21;;;;;;;17.98;13.77;;;11.60;99.90;;;;;;5019165;28;20024;-60
2022/10/28 06:19:47;;;;;;;29.25;19.08;;;11.70;99.90;;;;;;5016560;28;20037;-60
2022/10/28 06:22:12;;;;;;;41.60;26.35;;;11.70;99.90;;;;;;5022124;28;20560;-60
2022/10/28 06:24:38;;;;;;;57.72;32.78;;;11.70;99.90;;;;;;5027643;28;20072;-61
2022/10/28 06:27:04;;;;;;;53.25;32.88;;;11.70;99.90;;;;;;5017721;28;20032;-59
2022/10/28 06:29:31;;;;;;;52.85;31.75;;;11.80;99.90;;;;;;5024205;28;20095;-60
2022/10/28 06:31:56;;;;;;;49.63;28.02;;;11.80;99.90;;;;;;5016645;28;20064;-60
2022/10/28 06:34:22;;;;;;;41.70;25.60;;;11.80;99.90;;;;;;5015763;28;20046;-60
2022/10/28 06:36:47;;;;;;;29.63;22.67;;;11.80;99.90;;;;;;5020534;28;20048;-60
2022/10/28 06:39:13;;;;;;;26.88;20.55;;;11.80;99.90;;;;;;5020935;28;20034;-60
2022/10/28 06:41:39;;;;;;;21.70;16.52;;;11.90;99.90;;;;;;5022254;28;20040;-60
2022/10/28 06:44:04;;;;;;;25.63;17.30;;;12.00;99.90;;;;;;5018417;28;20076;-60
2022/10/28 06:46:30;;;;;;;29.35;16.90;;;12.00;99.90;;;;;;5020602;28;20501;-59
2022/10/28 06:48:56;;;;;;;21.88;17.05;;;12.00;99.90;;;;;;5018454;28;20164;-60
2022/10/28 06:51:22;;;;;;;29.83;18.48;;;12.10;99.90;;;;;;5018076;28;20037;-59
2022/10/28 06:53:51;;;;;;;32.63;21.98;;;12.10;99.90;;;;;;5019889;28;20029;-60
2022/10/28 06:56:17;;;;;;;28.70;21.10;;;12.00;99.90;;;;;;5015019;28;20118;-60
2022/10/28 06:58:43;;;;;;;40.80;22.27;;;12.10;99.90;;;;;;5016558;28;20029;-60
2022/10/28 07:01:09;;;;;;;30.60;20.75;;;12.10;99.90;;;;;;5015332;28;20026;-60
2022/10/28 07:03:34;;;;;;;32.10;22.75;;;12.10;99.90;;;;;;5013471;28;20767;-61
2022/10/28 07:06:00;;;;;;;42.15;23.65;;;12.10;99.90;;;;;;5015312;28;20034;-60
2022/10/28 07:08:27;;;;;;;35.13;22.83;;;12.20;99.90;;;;;;5020023;28;20022;-59
2022/10/28 07:10:58;;;;;;;38.28;21.80;;;12.20;99.90;;;;;;5016237;28;20088;-60
2022/10/28 07:13:25;;;;;;;31.17;24.10;;;12.30;99.90;;;;;;5018441;28;20038;-61
2022/10/28 07:15:55;;;;;;;32.97;22.25;;;12.30;99.90;;;;;;5014229;28;20033;-60
2022/10/28 07:18:22;;;;;;;41.75;24.30;;;12.30;99.90;;;;;;5015518;28;20029;-60
2022/10/28 07:20:48;;;;;;;36.25;22.52;;;12.40;99.90;;;;;;5021634;28;20410;-59
2022/10/28 07:23:13;;;;;;;31.83;22.70;;;12.40;99.90;;;;;;5024390;28;20021;-60
2022/10/28 07:25:39;;;;;;;34.47;24.75;;;12.40;99.90;;;;;;5024602;28;20052;-60
2022/10/28 07:28:05;;;;;;;33.38;23.95;;;12.40;99.90;;;;;;5021298;28;20034;-60
2022/10/28 07:30:31;;;;;;;29.85;22.98;;;12.50;99.90;;;;;;5022141;28;20044;-60
2022/10/28 07:33:00;;;;;;;27.50;22.08;;;12.50;99.90;;;;;;5023432;28;20040;-60
2022/10/28 07:35:30;;;;;;;26.42;20.98;;;12.50;99.90;;;;;;5025186;28;20049;-60
2022/10/28 07:37:57;;;;;;;31.27;19.73;;;12.50;99.90;;;;;;5023996;28;20041;-58
2022/10/28 07:40:24;;;;;;;27.50;19.13;;;12.50;99.90;;;;;;5020439;28;20528;-61
2022/10/28 07:42:49;;;;;;;28.60;20.38;;;12.50;99.90;;;;;;5025154;28;20094;-60
2022/10/28 07:45:16;;;;;;;27.13;21.63;;;12.50;99.90;;;;;;5023329;28;20120;-61
2022/10/28 07:47:42;;;;;;;28.17;20.55;;;12.60;99.90;;;;;;5026345;28;20104;-60
2022/10/28 07:50:09;;;;;;;42.03;25.80;;;12.70;99.90;;;;;;5027800;28;20179;-60
2022/10/28 07:52:35;;;;;;;48.55;30.33;;;12.80;99.90;;;;;;5022412;28;20064;-61
2022/10/28 07:55:06;;;;;;;47.50;30.75;;;13.00;99.90;;;;;;5023876;28;20482;-61
2022/10/28 07:57:33;;;;;;;38.28;26.20;;;13.30;99.90;;;;;;5024878;28;20029;-61
2022/10/28 07:59:59;;;;;;;34.10;22.92;;;13.70;99.90;;;;;;5023356;28;20083;-60
2022/10/28 08:02:25;;;;;;;28.88;20.27;;;13.80;99.90;;;;;;5024755;28;20026;-60
2022/10/28 08:04:51;;;;;;;33.53;22.23;;;14.00;99.90;;;;;;5020432;28;20038;-60
2022/10/28 08:07:18;;;;;;;37.65;21.73;;;14.20;99.90;;;;;;5022982;28;20117;-61
2022/10/28 08:09:44;;;;;;;29.15;21.27;;;14.30;99.90;;;;;;5024550;28;20017;-61
2022/10/28 08:12:12;;;;;;;33.45;23.05;;;14.20;99.90;;;;;;5025802;28;20032;-60
2022/10/28 08:14:38;;;;;;;36.05;23.45;;;14.20;99.90;;;;;;5023632;28;20367;-61
2022/10/28 08:17:04;;;;;;;38.13;24.38;;;14.20;99.90;;;;;;5024198;28;20036;-60
2022/10/28 08:19:29;;;;;;;36.05;25.70;;;14.20;99.90;;;;;;5023324;28;20438;-61
2022/10/28 08:21:55;;;;;;;33.50;24.25;;;14.10;99.90;;;;;;5022969;28;20128;-61
2022/10/28 08:24:21;;;;;;;42.70;27.83;;;14.10;99.90;;;;;;5022439;28;20132;-61
2022/10/28 08:26:46;;;;;;;40.83;27.42;;;14.00;99.90;;;;;;5024024;28;20024;-61
2022/10/28 08:29:12;;;;;;;38.30;27.15;;;14.00;99.90;;;;;;5022129;28;20553;-61
2022/10/28 08:31:38;;;;;;;35.78;26.73;;;14.00;99.90;;;;;;5019078;28;20022;-60
2022/10/28 08:34:05;;;;;;;41.10;26.85;;;14.00;99.90;;;;;;5017420;28;20033;-60
2022/10/28 08:36:31;;;;;;;30.23;24.52;;;14.00;99.90;;;;;;5022088;28;20034;-62
2022/10/28 08:38:59;;;;;;;27.33;21.55;;;14.00;99.90;;;;;;5018236;28;20164;-59
2022/10/28 08:41:38;;;;;;;30.40;21.73;;;14.10;99.90;;;;;;5019544;28;20037;-60
2022/10/28 08:44:18;;;;;;;24.38;19.85;;;14.20;99.90;;;;;;5022649;28;20406;-62
2022/10/28 08:47:05;;;;;;;22.55;18.83;;;14.10;99.90;;;;;;5017240;28;20037;-61
2022/10/28 08:49:33;;;;;;;21.58;18.58;;;14.10;99.90;;;;;;5018392;28;20037;-61
2022/10/28 08:52:16;;;;;;;26.77;17.67;;;14.10;99.90;;;;;;5019274;28;20045;-62
2022/10/28 08:54:50;;;;;;;25.73;19.65;;;14.20;99.90;;;;;;5019044;28;20057;-60
2022/10/28 08:57:20;;;;;;;23.58;19.92;;;14.30;99.90;;;;;;5021201;28;20028;-61
2022/10/28 08:59:51;;;;;;;21.65;17.73;;;14.40;99.90;;;;;;5019666;28;20052;-61
2022/10/28 09:02:36;;;;;;;18.63;16.08;;;14.50;99.90;;;;;;5019726;28;20096;-60
2022/10/28 09:05:15;;;;;;;20.33;17.85;;;14.50;99.90;;;;;;5020328;28;20069;-60
2022/10/28 09:07:40;;;;;;;15.52;13.95;;;14.60;99.90;;;;;;5023599;28;20055;-60
2022/10/28 09:10:06;;;;;;;19.00;14.82;;;15.00;99.90;;;;;;5023345;28;20032;-61
2022/10/28 09:12:50;;;;;;;22.58;14.00;;;15.20;99.90;;;;;;5020424;28;20582;-61
2022/10/28 09:15:42;;;;;;;15.90;13.85;;;15.10;99.90;;;;;;5014803;28;20037;-61
2022/10/28 09:18:18;;;;;;;21.23;14.60;;;15.10;99.90;;;;;;5023809;28;20026;-60
2022/10/28 09:20:53;;;;;;;15.32;13.25;;;15.10;99.90;;;;;;5019075;28;20109;-59
2022/10/28 09:23:36;;;;;;;19.63;13.90;;;15.30;99.90;;;;;;5018146;28;20038;-60
2022/10/28 09:26:32;;;;;;;16.17;10.98;;;15.90;99.90;;;;;;5024362;28;20448;-59
2022/10/28 09:29:18;;;;;;;17.33;9.45;;;16.80;99.90;;;;;;5020681;28;20116;-60
2022/10/28 09:31:54;;;;;;;14.60;10.48;;;17.10;99.90;;;;;;5022282;28;20049;-59
2022/10/28 09:34:38;;;;;;;17.65;10.18;;;17.00;99.90;;;;;;5020263;28;20044;-60
2022/10/28 09:37:12;;;;;;;11.38;9.20;;;17.00;99.90;;;;;;5022200;28;20040;-60
2022/10/28 09:39:46;;;;;;;10.15;9.15;;;17.60;99.90;;;;;;5017367;28;20031;-60
2022/10/28 09:42:19;;;;;;;9.85;8.50;;;18.50;99.90;;;;;;5019406;28;20077;-60
2022/10/28 09:44:53;;;;;;;12.10;8.25;;;19.00;99.90;;;;;;5014252;28;20042;-60
2022/10/28 09:47:26;;;;;;;8.20;7.35;;;19.50;99.90;;;;;;5023360;28;20042;-61
2022/10/28 09:49:57;;;;;;;9.82;8.10;;;19.60;99.90;;;;;;5015687;28;20049;-61
2022/10/28 09:52:29;;;;;;;11.48;8.75;;;19.70;99.90;;;;;;5020979;28;20038;-60
2022/10/28 09:54:56;;;;;;;8.80;7.90;;;19.70;99.90;;;;;;5022740;28;20163;-60
2022/10/28 09:57:29;;;;;;;11.60;8.10;;;19.70;99.90;;;;;;5016897;28;20042;-60
2022/10/28 09:59:55;;;;;;;10.00;8.05;;;19.40;99.90;;;;;;5020140;28;20414;-59
2022/10/28 10:02:32;;;;;;;14.52;7.60;;;19.10;99.90;;;;;;5020310;28;20028;-61
2022/10/28 10:05:00;;;;;;;10.73;8.10;;;18.80;99.90;;;;;;5024297;28;20030;-60
2022/10/28 10:07:37;;;;;;;10.32;7.82;;;18.70;99.90;;;;;;5020634;28;20033;-60
2022/10/28 10:10:10;;;;;;;10.48;8.75;;;18.80;99.90;;;;;;5015579;28;20045;-61
2022/10/28 10:12:37;;;;;;;11.00;8.15;;;18.90;99.90;;;;;;5020197;28;20087;-60
2022/10/28 10:15:05;;;;;;;13.93;7.65;;;19.00;99.90;;;;;;5018601;28;20113;-61
2022/10/28 10:17:39;;;;;;;12.50;7.68;;;19.20;99.90;;;;;;5017914;28;20084;-61
2022/10/28 10:20:13;;;;;;;10.90;7.40;;;19.10;99.90;;;;;;5021775;28;20049;-61
2022/10/28 10:22:41;;;;;;;11.63;7.55;;;19.10;99.90;;;;;;5019604;28;20044;-60
2022/10/28 10:25:21;;;;;;;12.30;7.38;;;19.00;99.90;;;;;;5020007;28;20038;-61
2022/10/28 10:28:00;;;;;;;9.10;7.68;;;19.00;99.90;;;;;;5018363;28;20124;-61
2022/10/28 10:30:28;;;;;;;9.13;7.05;;;19.20;99.90;;;;;;5021097;28;20091;-60
2022/10/28 10:32:55;;;;;;;14.05;7.30;;;19.20;99.90;;;;;;5016057;28;20034;-61
2022/10/28 10:35:31;;;;;;;11.20;7.65;;;19.40;99.90;;;;;;5019308;28;20041;-61
2022/10/28 10:38:00;;;;;;;8.45;7.50;;;19.50;99.90;;;;;;5017552;28;20038;-61
2022/10/28 10:40:32;;;;;;;10.90;7.50;;;19.30;99.90;;;;;;5018044;28;20068;-60
2022/10/28 10:43:16;;;;;;;9.10;6.38;;;19.00;99.90;;;;;;5019102;28;20116;-60
2022/10/28 10:45:51;;;;;;;8.48;7.68;;;18.80;99.90;;;;;;5016490;28;20030;-61
2022/10/28 10:48:17;;;;;;;8.95;7.88;;;18.60;99.90;;;;;;5017681;28;20036;-61
2022/10/28 10:50:46;;;;;;;9.23;7.50;;;18.40;99.90;;;;;;5013932;28;20029;-60
2022/10/28 10:53:27;;;;;;;8.93;7.10;;;18.30;99.90;;;;;;5018661;28;20489;-60
2022/10/28 10:55:55;;;;;;;9.27;6.90;;;18.50;99.90;;;;;;5017108;28;20648;-61
2022/10/28 10:58:23;;;;;;;11.02;6.88;;;18.60;99.90;;;;;;5017299;28;20030;-61
2022/10/28 11:00:55;;;;;;;10.73;6.25;;;18.80;99.90;;;;;;5019038;28;20121;-60
2022/10/28 11:03:23;;;;;;;;;;;18.80;99.90;;;;;;5022927;28;20033;-60
2022/10/28 11:05:54;;;;;;;6.68;6.07;;;19.00;99.90;;;;;;5020124;28;19909;-60
2022/10/28 11:08:39;;;;;;;10.30;6.43;;;19.10;99.90;;;;;;5022525;28;20040;-61
2022/10/28 11:11:13;;;;;;;9.35;6.13;;;19.30;99.90;;;;;;5020197;28;20052;-61
2022/10/28 11:13:40;;;;;;;9.45;5.97;;;19.40;99.90;;;;;;5019491;28;20502;-60
2022/10/28 11:16:20;;;;;;;15.10;6.78;;;19.40;99.90;;;;;;5013247;28;20048;-61
2022/10/28 11:18:48;;;;;;;6.78;6.13;;;19.20;99.90;;;;;;5017351;28;20037;-60
2022/10/28 11:22:04;;;;;;;6.93;6.22;;;18.80;99.90;;;;;;5019332;28;20044;-59
2022/10/28 11:25:07;;;;;;;9.13;6.90;;;18.60;99.90;;;;;;5008976;28;22012;-61
2022/10/28 11:27:57;;;;;;;10.98;6.43;;;18.30;99.90;;;;;;5017754;28;20049;-60
2022/10/28 11:30:41;;;;;;;11.75;6.78;;;18.30;99.90;;;;;;5011308;28;20448;-61
2022/10/28 11:48:09;;;;;;;16.65;6.95;;;18.60;99.90;;;;;;5045829;28;20353;-59
2022/10/28 11:51:07;;;;;;;19.92;5.57;;;18.70;99.90;;;;;;5002965;28;20442;-60
2022/10/28 11:53:48;;;;;;;10.65;5.75;;;18.70;99.90;;;;;;4997972;28;20771;-60
2022/10/28 11:56:36;;;;;;;14.07;6.25;;;18.60;99.90;;;;;;5021974;28;20042;-60
2022/10/28 11:59:24;;;;;;;8.02;6.43;;;18.40;99.90;;;;;;5022026;28;20025;-59
2022/10/28 12:02:04;;;;;;;8.60;5.85;;;18.30;99.90;;;;;;5024179;28;20120;-60
2022/10/28 12:04:51;;;;;;;7.60;6.35;;;18.30;99.90;;;;;;5023243;28;20034;-60
2022/10/28 12:07:16;;;;;;;10.27;5.80;;;18.30;99.90;;;;;;5037778;28;20080;-60
2022/10/28 12:10:19;;;;;;;8.30;5.68;;;18.60;99.90;;;;;;5044357;28;20029;-60
2022/10/28 12:13:02;;;;;;;11.68;6.10;;;19.00;99.90;;;;;;5039023;28;20033;-60
2022/10/28 12:16:02;;;;;;;5.75;4.90;;;19.40;99.90;;;;;;5044238;28;20028;-60
2022/10/28 12:18:53;;;;;;;12.43;5.40;;;19.70;99.90;;;;;;5042445;28;20060;-60
2022/10/28 12:21:26;;;;;;;11.27;4.68;;;20.00;99.90;;;;;;5042614;28;20067;-60
2022/10/28 12:23:54;;;;;;;7.65;4.28;;;20.10;99.90;;;;;;5041296;28;20096;-60
2022/10/28 12:26:24;;;;;;;8.55;5.45;;;20.30;99.90;;;;;;5042541;28;20454;-59
2022/10/28 12:28:56;;;;;;;9.00;4.53;;;20.40;99.90;;;;;;5041899;28;20060;-58
2022/10/28 12:31:24;;;;;;;7.35;4.18;;;20.50;99.90;;;;;;5041157;28;20041;-59
2022/10/28 12:33:55;;;;;;;9.27;3.90;;;20.50;99.90;;;;;;5042839;28;20033;-60
2022/10/28 12:36:37;;;;;;;6.68;4.20;;;20.70;99.90;;;;;;5055621;28;20837;-60
2022/10/28 12:39:20;;;;;;;9.48;4.43;;;20.90;99.90;;;;;;5043896;28;20033;-60
2022/10/28 12:42:12;;;;;;;9.27;4.43;;;20.90;99.90;;;;;;5041527;28;20025;-61
2022/10/28 12:44:39;;;;;;;7.50;3.92;;;20.80;99.90;;;;;;5038264;28;20033;-60
2022/10/28 12:47:22;;;;;;;5.63;3.60;;;20.70;99.90;;;;;;5043578;28;20083;-61
2022/10/28 12:49:56;;;;;;;7.63;4.13;;;20.70;99.90;;;;;;5040468;28;20104;-61
2022/10/28 12:52:59;;;;;;;6.80;4.03;;;20.70;99.90;;;;;;5041873;28;20076;-60
2022/10/28 12:55:40;;;;;;;5.30;3.63;;;20.70;99.90;;;;;;5041985;28;20104;-60
2022/10/28 12:58:18;;;;;;;9.07;3.88;;;20.70;99.90;;;;;;5034320;28;20037;-59
2022/10/28 13:00:48;;;;;;;5.00;3.15;;;20.70;99.90;;;;;;5026998;28;20033;-60
2022/10/28 13:03:15;;;;;;;5.90;3.63;;;20.70;99.90;;;;;;5030411;28;20028;-61
2022/10/28 13:05:47;;;;;;;7.05;3.42;;;20.70;99.90;;;;;;5030011;28;20036;-60